Shinshomaru — JJ4005 — position and weather

sailwx.info

Track history (hours):
 
Tides and Currents Weather Stations Pressure Air Temp Water Temp Dewpoint Dewpoint Depression Visibility Wind Speed Wind Dir Waves Ship Positions

Shinshomaru

Last reported at 2018-Jun-18 19:10 UTC. Time now 2018-Jun-18 22:31 UTC.
Position N 34°42' E 134°50'.

Length 111 m; draft 7 m.

Type: Cargo ship. MMSI: 431300873.

Date/timePositionNaut miles runAvg speedWind from/ knotsBaromVisibWave heightAir tempDewpointWater temp
2018-Jun-18 19:10N 34°42' E 134°50'0 1.4
2018-Jun-18 18:59N 34°42' E 134°50'7 8.4
2018-Jun-18 18:06N 34°38' E 134°43'112.9
2018-Jun-18 18:00N 34°37' E 134°41'612.4
2018-Jun-18 17:29N 34°33' E 134°35'612.3
2018-Jun-18 17:00N 34°30' E 134°29'712.7
2018-Jun-18 16:28N 34°26' E 134°22'  
2018-Jun-16 04:21N 34°25' E 134°21'513.1
2018-Jun-16 03:59N 34°28' E 134°26'613.4
2018-Jun-16 03:31N 34°31' E 134°33'713.7
2018-Jun-16 03:00N 34°36' E 134°40'714.0
2018-Jun-16 02:30N 34°40' E 134°47'4 0.8
2018-Jun-15 21:28N 34°43' E 134°50'0 0.0
2018-Jun-15 19:19N 34°43' E 134°50'0 0.0
2018-Jun-15 18:40N 34°43' E 134°50'0 0.0
2018-Jun-15 18:28N 34°43' E 134°50'0 0.0
2018-Jun-15 17:37N 34°43' E 134°50'0 0.0
2018-Jun-15 17:22N 34°43' E 134°50'0 0.0
2018-Jun-15 16:58N 34°43' E 134°50'0 0.0
2018-Jun-15 16:28N 34°43' E 134°50'0 0.0
2018-Jun-15 15:58N 34°43' E 134°50'0 0.0
2018-Jun-15 15:04N 34°43' E 134°50'0 0.0
2018-Jun-15 14:40N 34°43' E 134°50'0 0.0
2018-Jun-15 14:22N 34°43' E 134°50'0 0.0
2018-Jun-15 13:58N 34°43' E 134°50'0 0.0
2018-Jun-15 13:22N 34°43' E 134°50'0 0.0
2018-Jun-15 12:52N 34°43' E 134°50'0 0.0
2018-Jun-15 12:28N 34°43' E 134°50'0 0.0
2018-Jun-13 17:05N 34°43' E 134°50'0 1.1
2018-Jun-13 16:49N 34°42' E 134°50'1 3.1
2018-Jun-13 16:29N 34°41' E 134°49'510.9
2018-Jun-13 15:59N 34°38' E 134°44'612.7
2018-Jun-13 15:28N 34°35' E 134°37'612.1
2018-Jun-13 14:57N 34°31' E 134°31'712.1
2018-Jun-13 14:24N 34°27' E 134°24'  
2018-Jun-11 10:09N 34°25' E 134°21'214.1
2018-Jun-11 09:59N 34°26' E 134°23'714.3
2018-Jun-11 09:30N 34°30' E 134°30'714.1
2018-Jun-11 09:00N 34°34' E 134°37'714.2
2018-Jun-11 08:30N 34°38' E 134°45'6 0.2
2018-Jun-10 01:42N 34°43' E 134°50'0 0.0
2018-Jun-10 00:54N 34°43' E 134°50'0 0.0
2018-Jun-10 00:27N 34°43' E 134°50'0 0.0
2018-Jun-10 00:00N 34°43' E 134°50'0 0.0
2018-Jun-09 23:09N 34°43' E 134°50'0 0.0
2018-Jun-09 22:39N 34°43' E 134°50'0 0.0
2018-Jun-09 22:24N 34°43' E 134°50'0 0.0
2018-Jun-09 21:48N 34°43' E 134°50'0 0.0
2018-Jun-09 21:30N 34°43' E 134°50'0 0.0
2018-Jun-09 20:54N 34°43' E 134°50'0 0.0
2018-Jun-09 20:30N 34°43' E 134°50'0 0.0
2018-Jun-09 20:00N 34°43' E 134°50'0 0.0
2018-Jun-09 13:45N 34°43' E 134°50'0 0.0
2018-Jun-09 13:30N 34°43' E 134°50'0 0.0
2018-Jun-09 09:15N 34°43' E 134°50'0 0.5
2018-Jun-09 08:59N 34°42' E 134°50'4 6.9
2018-Jun-09 08:25N 34°40' E 134°46'512.1
2018-Jun-09 07:58N 34°37' E 134°41'1012.5
2018-Jun-09 07:11N 34°31' E 134°31'312.8
2018-Jun-09 06:59N 34°30' E 134°29'  
Track history (hours):
 
Tides and Currents Weather Stations Pressure Air Temp Water Temp Dewpoint Dewpoint Depression Visibility Wind Speed Wind Dir Waves Ship Positions

Shinshomaru

Last reported at 2018-Jun-18 19:10 UTC. Time now 2018-Jun-18 22:31 UTC.
Position N 34°42' E 134°50'.

Length 111 m; draft 7 m.

Type: Cargo ship. MMSI: 431300873.

Date/timePositionNaut miles runAvg speedWind from/ knotsBaromVisibWave heightAir tempDewpointWater temp
2018-Jun-18 19:10N 34°42' E 134°50'0 1.4
2018-Jun-18 18:59N 34°42' E 134°50'7 8.4
2018-Jun-18 18:06N 34°38' E 134°43'112.9
2018-Jun-18 18:00N 34°37' E 134°41'612.4
2018-Jun-18 17:29N 34°33' E 134°35'612.3
2018-Jun-18 17:00N 34°30' E 134°29'712.7
2018-Jun-18 16:28N 34°26' E 134°22'  
2018-Jun-16 04:21N 34°25' E 134°21'513.1
2018-Jun-16 03:59N 34°28' E 134°26'613.4
2018-Jun-16 03:31N 34°31' E 134°33'713.7
2018-Jun-16 03:00N 34°36' E 134°40'714.0
2018-Jun-16 02:30N 34°40' E 134°47'4 0.8
2018-Jun-15 21:28N 34°43' E 134°50'0 0.0
2018-Jun-15 19:19N 34°43' E 134°50'0 0.0
2018-Jun-15 18:40N 34°43' E 134°50'0 0.0
2018-Jun-15 18:28N 34°43' E 134°50'0 0.0
2018-Jun-15 17:37N 34°43' E 134°50'0 0.0
2018-Jun-15 17:22N 34°43' E 134°50'0 0.0
2018-Jun-15 16:58N 34°43' E 134°50'0 0.0
2018-Jun-15 16:28N 34°43' E 134°50'0 0.0
2018-Jun-15 15:58N 34°43' E 134°50'0 0.0
2018-Jun-15 15:04N 34°43' E 134°50'0 0.0
2018-Jun-15 14:40N 34°43' E 134°50'0 0.0
2018-Jun-15 14:22N 34°43' E 134°50'0 0.0
2018-Jun-15 13:58N 34°43' E 134°50'0 0.0
2018-Jun-15 13:22N 34°43' E 134°50'0 0.0
2018-Jun-15 12:52N 34°43' E 134°50'0 0.0
2018-Jun-15 12:28N 34°43' E 134°50'0 0.0
2018-Jun-13 17:05N 34°43' E 134°50'0 1.1
2018-Jun-13 16:49N 34°42' E 134°50'1 3.1
2018-Jun-13 16:29N 34°41' E 134°49'510.9
2018-Jun-13 15:59N 34°38' E 134°44'612.7
2018-Jun-13 15:28N 34°35' E 134°37'612.1
2018-Jun-13 14:57N 34°31' E 134°31'712.1
2018-Jun-13 14:24N 34°27' E 134°24'  
2018-Jun-11 10:09N 34°25' E 134°21'214.1
2018-Jun-11 09:59N 34°26' E 134°23'714.3
2018-Jun-11 09:30N 34°30' E 134°30'714.1
2018-Jun-11 09:00N 34°34' E 134°37'714.2
2018-Jun-11 08:30N 34°38' E 134°45'6 0.2
2018-Jun-10 01:42N 34°43' E 134°50'0 0.0
2018-Jun-10 00:54N 34°43' E 134°50'0 0.0
2018-Jun-10 00:27N 34°43' E 134°50'0 0.0
2018-Jun-10 00:00N 34°43' E 134°50'0 0.0
2018-Jun-09 23:09N 34°43' E 134°50'0 0.0
2018-Jun-09 22:39N 34°43' E 134°50'0 0.0
2018-Jun-09 22:24N 34°43' E 134°50'0 0.0
2018-Jun-09 21:48N 34°43' E 134°50'0 0.0
2018-Jun-09 21:30N 34°43' E 134°50'0 0.0
2018-Jun-09 20:54N 34°43' E 134°50'0 0.0
2018-Jun-09 20:30N 34°43' E 134°50'0 0.0
2018-Jun-09 20:00N 34°43' E 134°50'0 0.0
2018-Jun-09 13:45N 34°43' E 134°50'0 0.0
2018-Jun-09 13:30N 34°43' E 134°50'0 0.0
2018-Jun-09 09:15N 34°43' E 134°50'0 0.5
2018-Jun-09 08:59N 34°42' E 134°50'4 6.9
2018-Jun-09 08:25N 34°40' E 134°46'512.1
2018-Jun-09 07:58N 34°37' E 134°41'1012.5
2018-Jun-09 07:11N 34°31' E 134°31'312.8
2018-Jun-09 06:59N 34°30' E 134°29'  

Dump ship's entire track history